Terminal Aerodrome Forecast
Issued by NWS

Home | Current Version | Previous Version | Text Only | Print | Product List | Glossary Off
Versions: 1 2 3 4 5 6 7 8 9 10 11 12 13 14 15 16 17 18 19 20

000
FTUS43 KBIS 222320
TAFDIK
TAF
KDIK 222320Z 2300/2324 11016G23KT P6SM VCTS BKN100CB
      TEMPO 2300/2304 VRB30G40KT 1SM TSRAGR
     FM230400 11015G24KT P6SM VCTS BKN200CB
     FM230900 13012G20KT P6SM BKN060
     FM231200 23010G16KT P6SM SCT050
     FM231500 30015G22KT P6SM SCT200=

USA.gov is the U.S. government's official web portal to all federal, state and local government web resources and services.